Terminal Aerodrome Forecast
Issued by NWS Goodland, KS

Home | Current Version | Previous Version | Text Only | Print | Product List | Glossary On
Versions: 1 2 3 4 5 6 7 8 9 10 11 12 13 14 15 16 17 18 19 20 21 22 23 24 25 26
000
FTUS43 KGLD 222047 AAA
TAFGLD
TAF AMD
KGLD 222047Z 2221/2318 15015G25KT P6SM -DZ BKN007
     FM222200 15016G25KT P6SM VCSH SCT005 BKN035
     FM230100 14015G22KT 6SM -SHRA VCTS SCT005 BKN015CB
     FM230600 15013G18KT 3SM -SHRA BR BKN003
     FM231300 16015G23KT 1SM -DZ BR SCT001 BKN003
     FM231500 16017G24KT 6SM BR BKN003=

USA.gov is the U.S. government's official web portal to all federal, state and local government web resources and services.